createdAt,value
2019-02-07T00:00:24.871Z,46.73
2019-02-07T00:02:53.717Z,53.33
2019-02-07T00:05:22.540Z,43.17
2019-02-07T00:07:51.405Z,43.33
2019-02-07T00:10:21.448Z,47.00
2019-02-07T00:12:50.451Z,46.03
2019-02-07T00:15:19.408Z,40.70
2019-02-07T00:17:48.173Z,39.43
2019-02-07T00:20:18.456Z,42.53
2019-02-07T00:22:47.286Z,42.63
2019-02-07T00:25:16.104Z,41.97
2019-02-07T00:27:44.991Z,41.83
2019-02-07T00:30:18.934Z,48.83
2019-02-07T00:32:47.737Z,43.23
2019-02-07T00:35:16.499Z,43.50
2019-02-07T00:37:45.477Z,39.63
2019-02-07T00:40:17.157Z,41.60
2019-02-07T00:42:46.361Z,37.90
2019-02-07T00:45:17.074Z,41.40
2019-02-07T00:47:45.787Z,37.60
2019-02-07T00:50:16.097Z,36.73
2019-02-07T00:52:45.079Z,39.00
2019-02-07T00:55:15.485Z,39.30
2019-02-07T00:57:44.619Z,36.77
2019-02-07T01:00:29.929Z,37.53
2019-02-07T01:02:58.728Z,38.47
2019-02-07T01:05:27.617Z,37.47
2019-02-07T01:07:56.452Z,38.47
2019-02-07T01:10:29.902Z,35.77
2019-02-07T01:12:58.730Z,36.97
2019-02-07T01:15:29.196Z,36.00
2019-02-07T01:17:58.149Z,37.47
2019-02-07T01:20:27.137Z,34.70
2019-02-07T01:22:56.442Z,34.23
2019-02-07T01:25:25.822Z,35.43
2019-02-07T01:27:54.965Z,34.30
2019-02-07T01:30:25.847Z,35.60
2019-02-07T01:32:54.941Z,34.13
2019-02-07T01:35:23.731Z,34.07
2019-02-07T01:37:53.014Z,33.83
2019-02-07T01:40:22.657Z,34.23
2019-02-07T01:42:51.691Z,36.13
2019-02-07T01:45:22.196Z,34.77
2019-02-07T01:47:51.415Z,36.00
2019-02-07T01:50:24.708Z,35.37
2019-02-07T01:52:54.003Z,35.63
2019-02-07T01:55:22.961Z,33.60
2019-02-07T01:57:51.810Z,35.40
2019-02-07T02:00:21.026Z,35.27
2019-02-07T02:02:50.476Z,35.73
2019-02-07T02:05:20.249Z,34.23
2019-02-07T02:07:50.813Z,36.80
2019-02-07T02:10:22.490Z,35.20
2019-02-07T02:12:51.488Z,36.70
2019-02-07T02:15:24.720Z,35.87
2019-02-07T02:17:51.865Z,38.87
2019-02-07T02:20:22.736Z,40.17
2019-02-07T02:22:51.917Z,42.20
2019-02-07T02:25:20.961Z,48.63
2019-02-07T02:27:49.787Z,47.80
2019-02-07T02:30:23.947Z,40.30
2019-02-07T02:32:52.919Z,39.57
2019-02-07T02:35:22.127Z,41.27
2019-02-07T02:37:50.859Z,43.27
2019-02-07T02:40:19.807Z,41.60
2019-02-07T02:42:48.675Z,41.93
2019-02-07T02:45:22.003Z,43.00
2019-02-07T02:47:51.025Z,41.43
2019-02-07T02:50:21.354Z,43.00
2019-02-07T02:52:50.258Z,44.80
2019-02-07T02:55:20.659Z,43.80
2019-02-07T02:57:49.590Z,45.80
2019-02-07T03:00:20.265Z,48.17
2019-02-07T03:03:06.957Z,45.77
2019-02-07T03:05:52.945Z,46.27
2019-02-07T03:08:23.443Z,46.47
2019-02-07T03:11:10.731Z,49.17
2019-02-07T03:13:41.023Z,50.70
2019-02-07T03:16:27.475Z,52.40
2019-02-07T03:19:14.656Z,48.03
2019-02-07T03:21:57.353Z,53.13
2019-02-07T03:24:33.922Z,48.20
2019-02-07T03:27:21.241Z,53.90
2019-02-07T03:30:07.911Z,49.47
2019-02-07T03:32:44.160Z,50.50
2019-02-07T03:35:31.258Z,50.13
2019-02-07T03:38:16.856Z,47.87
2019-02-07T03:40:53.690Z,48.03
2019-02-07T03:43:26.780Z,49.17
2019-02-07T03:46:03.265Z,48.20
2019-02-07T03:48:33.802Z,45.07
2019-02-07T03:51:16.264Z,47.20
2019-02-07T03:54:03.051Z,46.07
2019-02-07T03:56:49.797Z,47.90
2019-02-07T03:59:36.968Z,47.20
2019-02-07T04:02:10.219Z,46.90
2019-02-07T04:04:43.068Z,48.80
2019-02-07T04:07:19.516Z,51.67
2019-02-07T04:09:55.704Z,52.30
2019-02-07T04:12:42.219Z,49.67
2019-02-07T04:15:13.155Z,43.93
2019-02-07T04:17:58.831Z,45.77
2019-02-07T04:20:45.201Z,43.97
2019-02-07T04:23:31.081Z,46.43
2019-02-07T04:26:04.584Z,44.77
2019-02-07T04:28:43.895Z,42.47
2019-02-07T04:31:29.477Z,45.03
2019-02-07T04:33:59.943Z,54.03
2019-02-07T04:36:39.452Z,66.33
2019-02-07T04:39:10.350Z,60.03
2019-02-07T04:41:43.812Z,56.60
2019-02-07T04:44:14.263Z,56.63
2019-02-07T04:47:02.769Z,68.03
2019-02-07T04:49:49.463Z,54.80
2019-02-07T04:52:36.405Z,55.37
2019-02-07T04:55:07.325Z,56.53
2019-02-07T04:57:37.744Z,64.73
2019-02-07T05:00:11.151Z,54.07
2019-02-07T05:02:47.022Z,52.73
2019-02-07T05:05:17.536Z,53.70
2019-02-07T05:07:50.716Z,52.03
2019-02-07T05:10:21.523Z,50.53
2019-02-07T05:12:57.751Z,46.70
2019-02-07T05:15:28.195Z,59.47
2019-02-07T05:18:01.487Z,63.83
2019-02-07T05:20:31.969Z,63.57
2019-02-07T05:23:02.312Z,67.60
2019-02-07T05:25:32.981Z,63.27
2019-02-07T05:28:06.080Z,64.00
2019-02-07T05:30:48.541Z,61.00
2019-02-07T05:33:37.670Z,69.40
2019-02-07T05:36:26.195Z,54.67
2019-02-07T05:38:59.326Z,54.47
2019-02-07T05:41:32.229Z,46.43
2019-02-07T05:44:17.960Z,48.60
2019-02-07T05:47:06.323Z,50.23
2019-02-07T05:49:54.857Z,46.43
2019-02-07T05:52:41.329Z,43.20
2019-02-07T05:55:21.274Z,44.00
2019-02-07T05:58:00.945Z,38.23
2019-02-07T06:00:31.623Z,40.93
2019-02-07T06:03:18.802Z,43.87
2019-02-07T06:05:49.197Z,41.83
2019-02-07T06:08:19.509Z,38.83
2019-02-07T06:10:49.836Z,38.37
2019-02-07T06:13:29.191Z,37.50
2019-02-07T06:15:59.590Z,37.93
2019-02-07T06:18:29.886Z,36.97
2019-02-07T06:21:00.406Z,48.37
2019-02-07T06:23:42.719Z,51.17
2019-02-07T06:26:16.568Z,59.47
2019-02-07T06:28:47.084Z,42.23
2019-02-07T06:31:17.407Z,39.53
2019-02-07T06:33:47.916Z,40.60
2019-02-07T06:36:24.717Z,47.40
2019-02-07T06:38:57.828Z,50.10
2019-02-07T06:41:37.268Z,43.30
2019-02-07T06:44:10.773Z,48.53
2019-02-07T06:46:41.294Z,55.33
2019-02-07T06:49:28.315Z,47.13
2019-02-07T06:52:01.850Z,43.70
2019-02-07T06:54:48.484Z,56.63
2019-02-07T06:57:21.852Z,43.47
2019-02-07T06:59:55.030Z,46.07
2019-02-07T07:02:37.838Z,47.37
2019-02-07T07:05:10.513Z,46.27
2019-02-07T07:07:49.825Z,44.00
2019-02-07T07:10:28.686Z,39.00
2019-02-07T07:12:59.148Z,43.50
2019-02-07T07:15:45.371Z,56.33
2019-02-07T07:18:21.679Z,52.97
2019-02-07T07:20:59.563Z,68.30
2019-02-07T07:23:42.685Z,53.83
2019-02-07T07:26:16.709Z,52.83
2019-02-07T07:28:50.013Z,65.10
2019-02-07T07:31:20.636Z,50.90
2019-02-07T07:33:57.402Z,55.23
2019-02-07T07:36:30.648Z,44.77
2019-02-07T07:39:17.513Z,51.20
2019-02-07T07:42:05.179Z,49.97
2019-02-07T07:44:44.795Z,52.47
2019-02-07T07:47:24.082Z,50.43
2019-02-07T07:49:54.429Z,43.53
2019-02-07T07:52:30.937Z,64.77
2019-02-07T07:55:10.540Z,58.63
2019-02-07T07:57:58.854Z,50.60
2019-02-07T08:00:29.309Z,46.73
2019-02-07T08:02:59.796Z,45.77
2019-02-07T08:05:35.952Z,46.00
2019-02-07T08:08:12.407Z,38.97
2019-02-07T08:10:51.848Z,42.63
2019-02-07T08:13:22.289Z,47.17
2019-02-07T08:16:08.999Z,42.50
2019-02-07T08:18:39.319Z,51.13
2019-02-07T08:21:27.882Z,44.87
2019-02-07T08:24:01.105Z,45.70
2019-02-07T08:26:34.942Z,62.10
2019-02-07T08:29:11.436Z,64.80
2019-02-07T08:31:53.925Z,59.93
2019-02-07T08:34:30.433Z,47.63
2019-02-07T08:37:00.817Z,56.43
2019-02-07T08:39:40.018Z,48.63
2019-02-07T08:42:10.463Z,41.60
2019-02-07T08:44:41.139Z,39.70
2019-02-07T08:47:20.721Z,43.47
2019-02-07T08:50:07.300Z,54.53
2019-02-07T08:52:54.799Z,77.63
2019-02-07T08:55:25.257Z,57.97
2019-02-07T08:57:55.658Z,53.17
2019-02-07T09:00:34.667Z,41.57
2019-02-07T09:03:20.368Z,34.97
2019-02-07T09:05:56.663Z,41.77
2019-02-07T09:08:39.336Z,49.83
2019-02-07T09:11:12.775Z,45.60
2019-02-07T09:13:49.178Z,42.17
2019-02-07T09:16:31.436Z,43.53
2019-02-07T09:19:14.124Z,61.57
2019-02-07T09:22:00.855Z,56.73
2019-02-07T09:24:47.668Z,49.63
2019-02-07T09:27:34.682Z,48.60
2019-02-07T09:30:22.160Z,44.87
2019-02-07T09:32:52.637Z,42.80
2019-02-07T09:35:26.475Z,47.47
2019-02-07T09:38:02.885Z,44.97
2019-02-07T09:40:33.267Z,50.80
2019-02-07T09:43:03.617Z,52.67
2019-02-07T09:45:36.985Z,50.53
2019-02-07T09:48:23.724Z,46.77
2019-02-07T09:51:00.092Z,38.43
2019-02-07T09:53:30.581Z,44.67
2019-02-07T09:56:04.186Z,41.37
2019-02-07T09:58:50.939Z,49.60
2019-02-07T10:01:27.280Z,40.90
2019-02-07T10:04:03.640Z,40.83
2019-02-07T10:06:34.084Z,40.20
2019-02-07T10:09:04.510Z,42.90
2019-02-07T10:11:34.887Z,43.30
2019-02-07T10:14:16.955Z,43.63
2019-02-07T10:16:53.003Z,44.00
2019-02-07T10:19:39.827Z,45.13
2019-02-07T10:22:13.044Z,44.53
2019-02-07T10:24:50.008Z,42.53
2019-02-07T10:27:26.946Z,43.37
2019-02-07T10:30:02.264Z,44.77
2019-02-07T10:32:45.297Z,44.93
2019-02-07T10:35:23.120Z,45.10
2019-02-07T10:37:53.659Z,49.47
2019-02-07T10:40:39.201Z,50.60
2019-02-07T10:43:12.964Z,42.07
2019-02-07T10:45:46.407Z,40.67
2019-02-07T10:48:19.626Z,37.10
2019-02-07T10:50:49.989Z,41.03
2019-02-07T10:53:20.482Z,40.07
2019-02-07T10:56:07.145Z,36.27
2019-02-07T10:58:40.167Z,39.00
2019-02-07T11:01:16.858Z,35.27
2019-02-07T11:03:57.081Z,49.87
2019-02-07T11:06:27.485Z,33.60
2019-02-07T11:09:13.000Z,34.53
2019-02-07T11:11:45.772Z,33.87
2019-02-07T11:14:28.013Z,35.30
2019-02-07T11:17:04.013Z,47.30
2019-02-07T11:19:40.223Z,41.80
2019-02-07T11:22:16.915Z,53.83
2019-02-07T11:24:52.776Z,46.40
2019-02-07T11:27:26.561Z,46.57
2019-02-07T11:30:09.249Z,30.60
2019-02-07T11:32:52.012Z,43.40
2019-02-07T11:35:28.664Z,44.55
2019-02-07T11:38:13.996Z,42.48
2019-02-07T11:40:47.224Z,45.20
2019-02-07T11:43:18.307Z,54.73
2019-02-07T11:46:05.240Z,39.00
2019-02-07T11:48:38.244Z,68.95
2019-02-07T11:51:27.001Z,78.45
2019-02-07T11:53:59.768Z,99.22
2019-02-07T11:56:33.454Z,61.90
2019-02-07T11:59:04.022Z,77.07
2019-02-07T12:01:34.390Z,115.40
2019-02-07T12:04:04.864Z,56.37
2019-02-07T12:06:37.875Z,117.47
2019-02-07T12:09:19.845Z,132.10
2019-02-07T12:12:01.945Z,146.00
2019-02-07T12:14:35.387Z,148.20
2019-02-07T12:17:15.499Z,105.57
2019-02-07T12:20:04.241Z,90.20
2019-02-07T12:22:43.629Z,49.47
2019-02-07T12:25:15.077Z,39.90
2019-02-07T12:27:49.716Z,40.93
2019-02-07T12:30:37.726Z,57.90
2019-02-07T12:33:11.194Z,42.07
2019-02-07T12:35:43.121Z,38.63
2019-02-07T12:38:16.359Z,33.37
2019-02-07T12:41:04.896Z,42.20
2019-02-07T12:43:51.663Z,48.27
2019-02-07T12:46:26.323Z,40.80
2019-02-07T12:48:59.237Z,40.33
2019-02-07T12:51:39.328Z,68.83
2019-02-07T12:54:09.886Z,53.47
2019-02-07T12:56:43.475Z,29.97
2019-02-07T12:59:14.341Z,64.90
2019-02-07T13:01:44.819Z,45.03
2019-02-07T13:04:25.466Z,35.83
2019-02-07T13:06:55.805Z,47.80
2019-02-07T13:09:35.455Z,42.93
2019-02-07T13:12:12.260Z,44.77
2019-02-07T13:14:48.593Z,40.63
2019-02-07T13:17:18.919Z,38.97
2019-02-07T13:19:55.561Z,38.70
2019-02-07T13:22:38.369Z,36.43
2019-02-07T13:25:14.029Z,31.07
2019-02-07T13:27:44.450Z,84.57
2019-02-07T13:30:34.515Z,81.63
2019-02-07T13:33:13.695Z,30.00
2019-02-07T13:35:47.070Z,28.63
2019-02-07T13:38:20.433Z,46.40
2019-02-07T13:40:51.159Z,27.93
2019-02-07T13:43:39.650Z,30.97
2019-02-07T13:46:10.180Z,30.97
2019-02-07T13:48:46.638Z,28.37
2019-02-07T13:51:23.390Z,30.17
2019-02-07T13:54:11.660Z,24.93
2019-02-07T13:56:45.268Z,22.50
2019-02-07T13:59:15.772Z,16.07
2019-02-07T14:01:54.933Z,17.80
2019-02-07T14:04:28.305Z,17.90
2019-02-07T14:07:13.996Z,16.87
2019-02-07T14:09:59.706Z,17.70
2019-02-07T14:12:36.150Z,15.57
2019-02-07T14:15:15.438Z,16.77
2019-02-07T14:17:48.954Z,16.37
2019-02-07T14:20:24.909Z,16.77
2019-02-07T14:23:04.257Z,18.17
2019-02-07T14:25:50.507Z,17.93
2019-02-07T14:28:26.545Z,18.23
2019-02-07T14:31:09.018Z,21.23
2019-02-07T14:33:54.657Z,24.30
2019-02-07T14:36:30.962Z,24.47
2019-02-07T14:39:17.744Z,23.87
2019-02-07T14:42:00.190Z,37.27
2019-02-07T14:44:39.835Z,19.73
2019-02-07T14:47:08.679Z,20.40
2019-02-07T14:49:37.882Z,19.80
2019-02-07T14:52:06.711Z,22.60
2019-02-07T14:54:35.565Z,26.97
2019-02-07T14:57:05.126Z,21.17
2019-02-07T14:59:34.023Z,28.20
2019-02-07T15:02:03.634Z,21.07
2019-02-07T15:04:33.486Z,27.33
2019-02-07T15:07:02.591Z,31.13
2019-02-07T15:09:31.372Z,35.93
2019-02-07T15:12:00.208Z,27.57
2019-02-07T15:14:29.293Z,28.93
2019-02-07T15:16:58.210Z,31.17
2019-02-07T15:19:27.104Z,28.73
2019-02-07T15:21:56.038Z,29.37
2019-02-07T15:24:24.883Z,25.63
2019-02-07T15:26:54.126Z,31.63
2019-02-07T15:29:23.029Z,37.53
2019-02-07T15:31:51.873Z,34.27
2019-02-07T15:34:20.633Z,32.47
2019-02-07T15:36:49.915Z,32.97
2019-02-07T15:39:20.572Z,34.80
2019-02-07T15:41:50.043Z,37.07
2019-02-07T15:44:19.889Z,35.83
2019-02-07T15:46:48.538Z,26.47
2019-02-07T15:49:17.760Z,24.40
2019-02-07T15:51:47.763Z,25.03
2019-02-07T15:54:16.677Z,23.80
2019-02-07T15:56:45.461Z,29.03
2019-02-07T15:59:16.034Z,35.03
2019-02-07T16:01:46.617Z,27.23
2019-02-07T16:04:17.039Z,30.27
2019-02-07T16:06:45.820Z,29.97
2019-02-07T16:09:16.376Z,28.50
2019-02-07T16:11:45.094Z,29.73
2019-02-07T16:14:14.351Z,28.67
2019-02-07T16:16:43.175Z,28.93
2019-02-07T16:19:12.218Z,29.03
2019-02-07T16:21:41.090Z,28.50
2019-02-07T16:24:10.149Z,31.23
2019-02-07T16:26:38.951Z,29.73
2019-02-07T16:29:08.123Z,37.30
2019-02-07T16:31:37.200Z,30.77
2019-02-07T16:34:06.354Z,38.40
2019-02-07T16:36:35.327Z,30.93
2019-02-07T16:39:05.634Z,33.50
2019-02-07T16:41:34.404Z,36.63
2019-02-07T16:44:03.547Z,30.87
2019-02-07T16:46:32.433Z,31.10
2019-02-07T16:49:01.160Z,34.43
2019-02-07T16:51:30.371Z,34.50
2019-02-07T16:53:59.225Z,28.60
2019-02-07T16:56:28.063Z,29.13
2019-02-07T16:58:57.365Z,24.80
2019-02-07T17:01:26.464Z,32.07
2019-02-07T17:03:55.349Z,29.27
2019-02-07T17:06:24.523Z,29.57
2019-02-07T17:08:53.594Z,38.90
2019-02-07T17:11:23.112Z,32.23
2019-02-07T17:13:52.031Z,39.60
2019-02-07T17:16:20.892Z,26.03
2019-02-07T17:18:50.107Z,36.10
2019-02-07T17:21:21.927Z,27.53
2019-02-07T17:23:50.776Z,27.07
2019-02-07T17:26:19.592Z,28.47
2019-02-07T17:28:48.576Z,26.80
2019-02-07T17:31:17.469Z,30.10
2019-02-07T17:33:46.551Z,26.77
2019-02-07T17:36:16.017Z,26.33
2019-02-07T17:38:44.833Z,26.07
2019-02-07T17:41:13.839Z,26.17
2019-02-07T17:43:42.768Z,26.03
2019-02-07T17:46:11.643Z,24.83
2019-02-07T17:48:40.410Z,26.37
2019-02-07T17:51:09.279Z,28.87
2019-02-07T17:53:38.064Z,24.67
2019-02-07T17:56:08.444Z,26.97
2019-02-07T17:58:38.827Z,29.67
2019-02-07T18:01:09.296Z,24.80
2019-02-07T18:03:39.233Z,25.07
2019-02-07T18:06:09.325Z,24.73
2019-02-07T18:08:40.086Z,25.90
2019-02-07T18:11:09.548Z,24.63
2019-02-07T18:13:39.724Z,25.80
2019-02-07T18:16:09.568Z,35.57
2019-02-07T18:18:39.433Z,24.87
2019-02-07T18:21:09.543Z,29.63
2019-02-07T18:23:39.157Z,25.43
2019-02-07T18:26:09.138Z,23.43
2019-02-07T18:28:38.594Z,23.90
2019-02-07T18:31:07.973Z,23.63
2019-02-07T18:33:37.463Z,22.80
2019-02-07T18:36:07.471Z,22.80
2019-02-07T18:38:36.565Z,22.43
2019-02-07T18:41:06.014Z,24.43
2019-02-07T18:43:35.686Z,25.87
2019-02-07T18:46:05.474Z,22.60
2019-02-07T18:48:34.915Z,23.30
2019-02-07T18:51:04.858Z,23.97
2019-02-07T18:53:34.138Z,22.83
2019-02-07T18:56:03.456Z,21.40
2019-02-07T18:58:32.479Z,24.20
2019-02-07T19:01:01.882Z,28.03
2019-02-07T19:03:31.249Z,24.57
2019-02-07T19:06:00.432Z,25.03
2019-02-07T19:08:29.835Z,23.63
2019-02-07T19:10:59.101Z,23.30
2019-02-07T19:13:28.450Z,22.93
2019-02-07T19:15:59.560Z,23.37
2019-02-07T19:18:29.386Z,23.67
2019-02-07T19:20:59.136Z,22.57
2019-02-07T19:23:28.215Z,25.10
2019-02-07T19:25:57.512Z,22.63
2019-02-07T19:28:27.679Z,23.20
2019-02-07T19:30:56.975Z,24.30
2019-02-07T19:33:26.219Z,21.23
2019-02-07T19:35:55.761Z,23.30
2019-02-07T19:38:25.251Z,25.40
2019-02-07T19:40:54.221Z,27.73
2019-02-07T19:43:23.465Z,29.00
2019-02-07T19:45:52.233Z,27.27
2019-02-07T19:48:21.553Z,27.90
2019-02-07T19:50:51.989Z,26.07
2019-02-07T19:53:22.070Z,22.93
2019-02-07T19:55:51.407Z,24.20
2019-02-07T19:58:21.019Z,26.23
2019-02-07T20:00:50.143Z,25.80
2019-02-07T20:03:18.964Z,22.40
2019-02-07T20:05:47.953Z,22.37
2019-02-07T20:08:17.799Z,21.93
2019-02-07T20:10:47.047Z,26.27
2019-02-07T20:13:15.976Z,24.20
2019-02-07T20:15:45.401Z,25.90
2019-02-07T20:18:14.466Z,21.67
2019-02-07T20:20:43.681Z,22.13
2019-02-07T20:23:12.514Z,22.33
2019-02-07T20:25:41.746Z,24.47
2019-02-07T20:28:10.577Z,25.77
2019-02-07T20:30:41.942Z,22.47
2019-02-07T20:33:10.633Z,23.63
2019-02-07T20:35:39.518Z,23.10
2019-02-07T20:38:09.524Z,21.67
2019-02-07T20:40:38.305Z,22.67
2019-02-07T20:43:07.562Z,25.90
2019-02-07T20:45:36.430Z,21.80
2019-02-07T20:48:06.732Z,21.90
2019-02-07T20:50:35.844Z,24.10
2019-02-07T20:53:05.994Z,23.90
2019-02-07T20:55:34.873Z,24.07
2019-02-07T20:58:04.747Z,24.27
2019-02-07T21:00:35.891Z,23.30
2019-02-07T21:03:05.710Z,25.10
2019-02-07T21:05:34.580Z,23.20
2019-02-07T21:08:03.458Z,24.17
2019-02-07T21:10:37.395Z,26.00
2019-02-07T21:13:07.169Z,23.23
2019-02-07T21:15:36.210Z,21.33
2019-02-07T21:18:05.783Z,19.43
2019-02-07T21:20:34.781Z,20.37
2019-02-07T21:23:03.806Z,20.87
2019-02-07T21:25:38.109Z,21.10
2019-02-07T21:28:08.233Z,23.00
2019-02-07T21:30:37.116Z,21.97
2019-02-07T21:33:06.729Z,19.43
2019-02-07T21:35:35.776Z,19.67
2019-02-07T21:38:06.098Z,19.60
2019-02-07T21:40:35.641Z,19.70
2019-02-07T21:43:04.847Z,20.70
2019-02-07T21:45:34.246Z,21.63
2019-02-07T21:48:03.215Z,21.20
2019-02-07T21:50:33.006Z,20.67
2019-02-07T21:53:01.761Z,21.73
2019-02-07T21:55:33.018Z,21.77
2019-02-07T21:58:01.772Z,22.73
2019-02-07T22:00:33.916Z,22.57
2019-02-07T22:03:02.953Z,21.80
2019-02-07T22:05:32.056Z,20.50
2019-02-07T22:08:01.093Z,21.60
2019-02-07T22:10:30.212Z,19.33
2019-02-07T22:12:59.499Z,20.87
2019-02-07T22:15:29.364Z,21.53
2019-02-07T22:17:58.329Z,22.13
2019-02-07T22:20:30.749Z,21.30
2019-02-07T22:22:59.977Z,20.70
2019-02-07T22:25:28.866Z,21.07
2019-02-07T22:27:57.871Z,21.10
2019-02-07T22:30:32.771Z,22.30
2019-02-07T22:33:01.672Z,21.90
2019-02-07T22:35:30.735Z,22.10
2019-02-07T22:37:59.544Z,22.87
2019-02-07T22:40:28.606Z,22.80
2019-02-07T22:42:59.088Z,20.77
2019-02-07T22:45:28.155Z,20.90
2019-02-07T22:47:56.967Z,21.23
2019-02-07T22:50:30.084Z,20.47
2019-02-07T22:53:00.427Z,21.40
2019-02-07T22:55:29.175Z,21.50
2019-02-07T22:57:58.082Z,22.37
2019-02-07T23:00:34.885Z,20.30
2019-02-07T23:03:09.282Z,21.70
2019-02-07T23:05:38.064Z,19.50
2019-02-07T23:08:07.140Z,22.03
2019-02-07T23:10:36.021Z,20.70
2019-02-07T23:13:06.324Z,19.80
2019-02-07T23:15:35.155Z,19.63
2019-02-07T23:18:05.164Z,21.00
2019-02-07T23:20:34.019Z,20.33
2019-02-07T23:23:05.500Z,20.20
2019-02-07T23:25:34.615Z,21.77
2019-02-07T23:28:03.492Z,21.67
2019-02-07T23:30:32.181Z,22.97
2019-02-07T23:33:01.255Z,21.50
2019-02-07T23:35:29.962Z,23.33
2019-02-07T23:37:58.845Z,22.07
2019-02-07T23:40:27.714Z,22.63
2019-02-07T23:42:56.792Z,22.70
2019-02-07T23:45:25.684Z,23.67
2019-02-07T23:47:54.454Z,26.90
2019-02-07T23:50:23.262Z,25.87
2019-02-07T23:52:51.986Z,27.07
2019-02-07T23:55:20.802Z,33.83
2019-02-07T23:57:49.618Z,22.93
